sensor_id;sensor_type;location;lat;lon;timestamp;P1;durP1;ratioP1;P2;durP2;ratioP2
18711;SDS011;9485;49.386;8.674;2023-03-31T00:04:01;3.87;;;1.53;;
18711;SDS011;9485;49.386;8.674;2023-03-31T00:09:22;7.10;;;1.80;;
18711;SDS011;9485;49.386;8.674;2023-03-31T00:14:43;5.63;;;1.70;;
18711;SDS011;9485;49.386;8.674;2023-03-31T00:20:06;3.43;;;1.70;;
18711;SDS011;9485;49.386;8.674;2023-03-31T00:25:30;4.27;;;1.70;;
18711;SDS011;9485;49.386;8.674;2023-03-31T00:30:50;2.97;;;1.50;;
18711;SDS011;9485;49.386;8.674;2023-03-31T00:36:12;5.23;;;2.03;;
18711;SDS011;9485;49.386;8.674;2023-03-31T00:41:38;3.90;;;1.10;;
18711;SDS011;9485;49.386;8.674;2023-03-31T00:47:00;1.97;;;1.10;;
18711;SDS011;9485;49.386;8.674;2023-03-31T00:52:28;4.97;;;1.60;;
18711;SDS011;9485;49.386;8.674;2023-03-31T00:57:55;3.63;;;1.43;;
18711;SDS011;9485;49.386;8.674;2023-03-31T01:03:19;3.67;;;1.43;;
18711;SDS011;9485;49.386;8.674;2023-03-31T01:08:42;4.53;;;1.90;;
18711;SDS011;9485;49.386;8.674;2023-03-31T01:14:06;2.17;;;1.30;;
18711;SDS011;9485;49.386;8.674;2023-03-31T01:19:31;3.47;;;1.30;;
18711;SDS011;9485;49.386;8.674;2023-03-31T01:25:20;7.47;;;1.73;;
18711;SDS011;9485;49.386;8.674;2023-03-31T01:43:42;4.50;;;1.60;;
18711;SDS011;9485;49.386;8.674;2023-03-31T01:49:14;3.17;;;1.60;;
18711;SDS011;9485;49.386;8.674;2023-03-31T01:54:43;4.93;;;1.80;;
18711;SDS011;9485;49.386;8.674;2023-03-31T02:00:15;4.60;;;1.50;;
18711;SDS011;9485;49.386;8.674;2023-03-31T02:05:43;3.77;;;1.23;;
18711;SDS011;9485;49.386;8.674;2023-03-31T02:11:10;2.60;;;1.10;;
18711;SDS011;9485;49.386;8.674;2023-03-31T02:16:34;1.13;;;0.90;;
18711;SDS011;9485;49.386;8.674;2023-03-31T02:21:59;2.50;;;1.00;;
18711;SDS011;9485;49.386;8.674;2023-03-31T02:27:23;3.23;;;1.23;;
18711;SDS011;9485;49.386;8.674;2023-03-31T02:32:51;3.17;;;1.20;;
18711;SDS011;9485;49.386;8.674;2023-03-31T02:38:13;5.43;;;1.17;;
18711;SDS011;9485;49.386;8.674;2023-03-31T02:43:33;2.70;;;1.10;;
18711;SDS011;9485;49.386;8.674;2023-03-31T02:48:56;2.80;;;1.00;;
18711;SDS011;9485;49.386;8.674;2023-03-31T02:54:34;6.40;;;1.63;;
18711;SDS011;9485;49.386;8.674;2023-03-31T03:00:28;4.67;;;1.57;;
18711;SDS011;9485;49.386;8.674;2023-03-31T03:06:10;3.33;;;1.30;;
18711;SDS011;9485;49.386;8.674;2023-03-31T03:11:57;2.90;;;1.20;;
18711;SDS011;9485;49.386;8.674;2023-03-31T03:17:33;2.80;;;1.10;;
18711;SDS011;9485;49.386;8.674;2023-03-31T03:22:59;3.63;;;1.30;;
18711;SDS011;9485;49.386;8.674;2023-03-31T03:28:20;4.10;;;1.30;;
18711;SDS011;9485;49.386;8.674;2023-03-31T03:33:41;2.43;;;1.10;;
18711;SDS011;9485;49.386;8.674;2023-03-31T03:39:03;2.80;;;1.20;;
18711;SDS011;9485;49.386;8.674;2023-03-31T03:44:26;4.10;;;1.13;;
18711;SDS011;9485;49.386;8.674;2023-03-31T03:49:46;2.03;;;1.20;;
18711;SDS011;9485;49.386;8.674;2023-03-31T03:55:09;3.33;;;1.40;;
18711;SDS011;9485;49.386;8.674;2023-03-31T04:00:30;3.43;;;1.40;;
18711;SDS011;9485;49.386;8.674;2023-03-31T04:05:55;4.37;;;1.30;;
18711;SDS011;9485;49.386;8.674;2023-03-31T04:11:17;4.03;;;1.20;;
18711;SDS011;9485;49.386;8.674;2023-03-31T04:16:38;4.57;;;1.33;;
18711;SDS011;9485;49.386;8.674;2023-03-31T04:22:00;4.23;;;1.33;;
18711;SDS011;9485;49.386;8.674;2023-03-31T04:27:24;3.57;;;1.20;;
18711;SDS011;9485;49.386;8.674;2023-03-31T04:32:45;3.83;;;1.67;;
18711;SDS011;9485;49.386;8.674;2023-03-31T04:38:08;4.00;;;1.43;;
18711;SDS011;9485;49.386;8.674;2023-03-31T04:43:30;3.97;;;1.70;;
18711;SDS011;9485;49.386;8.674;2023-03-31T04:48:51;4.90;;;1.60;;
18711;SDS011;9485;49.386;8.674;2023-03-31T04:54:12;3.37;;;1.67;;
18711;SDS011;9485;49.386;8.674;2023-03-31T04:59:34;3.40;;;1.53;;
18711;SDS011;9485;49.386;8.674;2023-03-31T05:04:55;5.97;;;2.00;;
18711;SDS011;9485;49.386;8.674;2023-03-31T05:10:15;2.63;;;1.80;;
18711;SDS011;9485;49.386;8.674;2023-03-31T05:15:38;2.57;;;1.57;;
18711;SDS011;9485;49.386;8.674;2023-03-31T05:21:07;3.57;;;1.73;;
18711;SDS011;9485;49.386;8.674;2023-03-31T05:26:30;5.17;;;2.10;;
18711;SDS011;9485;49.386;8.674;2023-03-31T05:31:54;2.80;;;1.90;;
18711;SDS011;9485;49.386;8.674;2023-03-31T05:37:15;4.03;;;2.37;;
18711;SDS011;9485;49.386;8.674;2023-03-31T05:42:36;2.60;;;2.00;;
18711;SDS011;9485;49.386;8.674;2023-03-31T05:47:59;7.10;;;2.80;;
18711;SDS011;9485;49.386;8.674;2023-03-31T05:53:20;4.17;;;2.33;;
18711;SDS011;9485;49.386;8.674;2023-03-31T05:58:41;3.57;;;2.23;;
18711;SDS011;9485;49.386;8.674;2023-03-31T06:04:05;4.17;;;2.60;;
18711;SDS011;9485;49.386;8.674;2023-03-31T06:09:26;5.03;;;2.60;;
18711;SDS011;9485;49.386;8.674;2023-03-31T06:14:47;5.03;;;2.93;;
18711;SDS011;9485;49.386;8.674;2023-03-31T06:20:10;4.67;;;2.90;;
18711;SDS011;9485;49.386;8.674;2023-03-31T06:25:31;5.17;;;3.13;;
18711;SDS011;9485;49.386;8.674;2023-03-31T06:30:58;5.23;;;3.37;;
18711;SDS011;9485;49.386;8.674;2023-03-31T06:36:22;5.70;;;3.67;;
18711;SDS011;9485;49.386;8.674;2023-03-31T06:41:44;4.20;;;3.20;;
18711;SDS011;9485;49.386;8.674;2023-03-31T06:47:12;6.10;;;3.77;;
18711;SDS011;9485;49.386;8.674;2023-03-31T06:52:35;4.47;;;3.13;;
18711;SDS011;9485;49.386;8.674;2023-03-31T06:57:59;4.43;;;3.43;;
18711;SDS011;9485;49.386;8.674;2023-03-31T07:03:20;4.67;;;3.53;;
18711;SDS011;9485;49.386;8.674;2023-03-31T07:08:44;5.23;;;3.70;;
18711;SDS011;9485;49.386;8.674;2023-03-31T07:14:05;7.13;;;4.07;;
18711;SDS011;9485;49.386;8.674;2023-03-31T07:19:26;5.60;;;3.77;;
18711;SDS011;9485;49.386;8.674;2023-03-31T07:24:49;6.57;;;3.57;;
18711;SDS011;9485;49.386;8.674;2023-03-31T07:30:11;4.40;;;3.27;;
18711;SDS011;9485;49.386;8.674;2023-03-31T07:35:36;6.37;;;4.03;;
18711;SDS011;9485;49.386;8.674;2023-03-31T07:41:00;4.03;;;3.50;;
18711;SDS011;9485;49.386;8.674;2023-03-31T07:46:22;4.47;;;3.37;;
18711;SDS011;9485;49.386;8.674;2023-03-31T07:51:47;5.23;;;3.83;;
18711;SDS011;9485;49.386;8.674;2023-03-31T07:57:10;4.60;;;2.87;;
18711;SDS011;9485;49.386;8.674;2023-03-31T08:02:35;5.83;;;3.63;;
18711;SDS011;9485;49.386;8.674;2023-03-31T08:07:55;5.70;;;3.17;;
18711;SDS011;9485;49.386;8.674;2023-03-31T08:13:18;5.23;;;2.77;;
18711;SDS011;9485;49.386;8.674;2023-03-31T08:18:39;6.50;;;3.07;;
18711;SDS011;9485;49.386;8.674;2023-03-31T08:24:01;4.63;;;2.77;;
18711;SDS011;9485;49.386;8.674;2023-03-31T08:29:25;6.60;;;3.33;;
18711;SDS011;9485;49.386;8.674;2023-03-31T08:34:46;4.33;;;2.97;;
18711;SDS011;9485;49.386;8.674;2023-03-31T08:40:07;3.73;;;2.60;;
18711;SDS011;9485;49.386;8.674;2023-03-31T08:45:40;4.27;;;2.60;;
18711;SDS011;9485;49.386;8.674;2023-03-31T08:51:08;3.37;;;2.60;;
18711;SDS011;9485;49.386;8.674;2023-03-31T08:56:40;4.17;;;2.10;;
18711;SDS011;9485;49.386;8.674;2023-03-31T09:02:11;3.60;;;2.10;;
18711;SDS011;9485;49.386;8.674;2023-03-31T09:07:48;2.77;;;2.33;;
18711;SDS011;9485;49.386;8.674;2023-03-31T09:13:23;3.80;;;1.90;;
18711;SDS011;9485;49.386;8.674;2023-03-31T09:19:20;2.37;;;1.80;;
18711;SDS011;9485;49.386;8.674;2023-03-31T09:24:55;4.73;;;2.13;;
18711;SDS011;9485;49.386;8.674;2023-03-31T09:30:23;2.23;;;1.60;;
18711;SDS011;9485;49.386;8.674;2023-03-31T09:35:50;3.00;;;1.47;;
18711;SDS011;9485;49.386;8.674;2023-03-31T09:41:11;3.37;;;1.70;;
18711;SDS011;9485;49.386;8.674;2023-03-31T09:46:36;3.53;;;2.00;;
18711;SDS011;9485;49.386;8.674;2023-03-31T09:52:01;3.70;;;2.10;;
18711;SDS011;9485;49.386;8.674;2023-03-31T09:57:26;7.00;;;1.53;;
18711;SDS011;9485;49.386;8.674;2023-03-31T10:02:49;7.17;;;2.23;;
18711;SDS011;9485;49.386;8.674;2023-03-31T10:08:19;3.40;;;1.40;;
18711;SDS011;9485;49.386;8.674;2023-03-31T10:13:45;4.43;;;1.60;;
18711;SDS011;9485;49.386;8.674;2023-03-31T10:19:18;4.97;;;1.63;;
18711;SDS011;9485;49.386;8.674;2023-03-31T10:24:43;6.57;;;2.00;;
18711;SDS011;9485;49.386;8.674;2023-03-31T10:30:07;5.83;;;2.10;;
18711;SDS011;9485;49.386;8.674;2023-03-31T10:35:32;4.60;;;1.50;;
18711;SDS011;9485;49.386;8.674;2023-03-31T10:40:57;6.73;;;1.90;;
18711;SDS011;9485;49.386;8.674;2023-03-31T10:46:20;4.03;;;1.60;;
18711;SDS011;9485;49.386;8.674;2023-03-31T10:51:59;6.23;;;1.70;;
18711;SDS011;9485;49.386;8.674;2023-03-31T10:57:23;0.80;;;0.60;;
18711;SDS011;9485;49.386;8.674;2023-03-31T11:09:10;1.50;;;0.70;;
18711;SDS011;9485;49.386;8.674;2023-03-31T11:14:47;0.80;;;0.73;;
18711;SDS011;9485;49.386;8.674;2023-03-31T11:20:34;1.17;;;0.70;;
18711;SDS011;9485;49.386;8.674;2023-03-31T11:26:01;1.13;;;0.80;;
18711;SDS011;9485;49.386;8.674;2023-03-31T11:31:34;2.20;;;1.00;;
18711;SDS011;9485;49.386;8.674;2023-03-31T11:37:13;2.80;;;0.90;;
18711;SDS011;9485;49.386;8.674;2023-03-31T11:42:56;3.03;;;0.90;;
18711;SDS011;9485;49.386;8.674;2023-03-31T11:48:25;2.53;;;1.10;;
18711;SDS011;9485;49.386;8.674;2023-03-31T11:53:58;4.13;;;1.47;;
18711;SDS011;9485;49.386;8.674;2023-03-31T11:59:30;2.53;;;1.10;;
18711;SDS011;9485;49.386;8.674;2023-03-31T12:04:56;3.83;;;1.67;;
18711;SDS011;9485;49.386;8.674;2023-03-31T12:10:20;4.20;;;1.07;;
18711;SDS011;9485;49.386;8.674;2023-03-31T12:15:43;4.73;;;1.30;;
18711;SDS011;9485;49.386;8.674;2023-03-31T12:21:20;3.43;;;1.90;;
18711;SDS011;9485;49.386;8.674;2023-03-31T12:26:46;3.20;;;1.30;;
18711;SDS011;9485;49.386;8.674;2023-03-31T12:32:20;3.97;;;1.23;;
18711;SDS011;9485;49.386;8.674;2023-03-31T12:37:54;2.00;;;1.13;;
18711;SDS011;9485;49.386;8.674;2023-03-31T12:49:39;2.10;;;0.90;;
18711;SDS011;9485;49.386;8.674;2023-03-31T12:55:36;1.63;;;1.00;;
18711;SDS011;9485;49.386;8.674;2023-03-31T13:01:10;3.77;;;1.50;;
18711;SDS011;9485;49.386;8.674;2023-03-31T13:12:21;2.10;;;0.90;;
18711;SDS011;9485;49.386;8.674;2023-03-31T13:17:56;3.17;;;1.00;;
18711;SDS011;9485;49.386;8.674;2023-03-31T13:23:20;5.00;;;1.60;;
18711;SDS011;9485;49.386;8.674;2023-03-31T13:28:45;1.77;;;1.07;;
18711;SDS011;9485;49.386;8.674;2023-03-31T13:34:31;2.07;;;0.83;;
18711;SDS011;9485;49.386;8.674;2023-03-31T13:40:06;3.90;;;1.10;;
18711;SDS011;9485;49.386;8.674;2023-03-31T13:52:13;2.13;;;0.87;;
18711;SDS011;9485;49.386;8.674;2023-03-31T13:58:11;4.00;;;0.90;;
18711;SDS011;9485;49.386;8.674;2023-03-31T14:04:32;2.63;;;0.87;;
18711;SDS011;9485;49.386;8.674;2023-03-31T14:10:23;3.40;;;0.97;;
18711;SDS011;9485;49.386;8.674;2023-03-31T14:15:49;3.70;;;0.70;;
18711;SDS011;9485;49.386;8.674;2023-03-31T14:21:15;2.60;;;0.97;;
18711;SDS011;9485;49.386;8.674;2023-03-31T14:26:50;4.63;;;1.13;;
18711;SDS011;9485;49.386;8.674;2023-03-31T14:32:22;4.53;;;1.50;;
18711;SDS011;9485;49.386;8.674;2023-03-31T14:37:52;2.47;;;0.90;;
18711;SDS011;9485;49.386;8.674;2023-03-31T14:43:21;3.23;;;1.50;;
18711;SDS011;9485;49.386;8.674;2023-03-31T14:48:45;3.93;;;1.13;;
18711;SDS011;9485;49.386;8.674;2023-03-31T14:54:13;4.23;;;1.10;;
18711;SDS011;9485;49.386;8.674;2023-03-31T14:59:38;2.40;;;1.23;;
18711;SDS011;9485;49.386;8.674;2023-03-31T15:05:00;2.37;;;0.97;;
18711;SDS011;9485;49.386;8.674;2023-03-31T15:10:25;1.13;;;0.83;;
18711;SDS011;9485;49.386;8.674;2023-03-31T15:15:55;3.83;;;1.00;;
18711;SDS011;9485;49.386;8.674;2023-03-31T15:21:20;5.57;;;1.33;;
18711;SDS011;9485;49.386;8.674;2023-03-31T15:26:44;2.60;;;1.00;;
18711;SDS011;9485;49.386;8.674;2023-03-31T15:32:16;2.43;;;0.90;;
18711;SDS011;9485;49.386;8.674;2023-03-31T15:37:44;3.47;;;1.00;;
18711;SDS011;9485;49.386;8.674;2023-03-31T15:43:07;3.67;;;1.00;;
18711;SDS011;9485;49.386;8.674;2023-03-31T15:48:36;4.23;;;1.30;;
18711;SDS011;9485;49.386;8.674;2023-03-31T15:54:24;3.87;;;1.00;;
18711;SDS011;9485;49.386;8.674;2023-03-31T15:59:52;2.67;;;1.00;;
18711;SDS011;9485;49.386;8.674;2023-03-31T16:05:22;2.73;;;1.23;;
18711;SDS011;9485;49.386;8.674;2023-03-31T16:10:57;2.40;;;1.10;;
18711;SDS011;9485;49.386;8.674;2023-03-31T16:16:24;1.23;;;0.83;;
18711;SDS011;9485;49.386;8.674;2023-03-31T16:21:50;2.13;;;1.00;;
18711;SDS011;9485;49.386;8.674;2023-03-31T16:27:18;2.37;;;0.87;;
18711;SDS011;9485;49.386;8.674;2023-03-31T16:32:44;2.33;;;0.90;;
18711;SDS011;9485;49.386;8.674;2023-03-31T16:38:22;2.20;;;1.00;;
18711;SDS011;9485;49.386;8.674;2023-03-31T16:43:46;2.37;;;1.23;;
18711;SDS011;9485;49.386;8.674;2023-03-31T16:49:10;7.17;;;1.80;;
18711;SDS011;9485;49.386;8.674;2023-03-31T16:54:32;2.53;;;1.23;;
18711;SDS011;9485;49.386;8.674;2023-03-31T16:59:53;2.07;;;0.90;;
18711;SDS011;9485;49.386;8.674;2023-03-31T17:05:14;2.00;;;1.00;;
18711;SDS011;9485;49.386;8.674;2023-03-31T17:10:37;1.67;;;0.90;;
18711;SDS011;9485;49.386;8.674;2023-03-31T17:15:59;0.83;;;0.80;;
18711;SDS011;9485;49.386;8.674;2023-03-31T17:21:20;2.93;;;1.20;;
18711;SDS011;9485;49.386;8.674;2023-03-31T17:26:43;1.63;;;0.90;;
18711;SDS011;9485;49.386;8.674;2023-03-31T17:32:05;1.20;;;0.70;;
18711;SDS011;9485;49.386;8.674;2023-03-31T17:37:26;2.33;;;0.90;;
18711;SDS011;9485;49.386;8.674;2023-03-31T17:42:48;0.93;;;0.80;;
18711;SDS011;9485;49.386;8.674;2023-03-31T17:48:10;0.73;;;0.70;;
18711;SDS011;9485;49.386;8.674;2023-03-31T17:53:31;1.47;;;0.93;;
18711;SDS011;9485;49.386;8.674;2023-03-31T17:58:53;1.37;;;0.73;;
18711;SDS011;9485;49.386;8.674;2023-03-31T18:04:15;0.80;;;0.60;;
18711;SDS011;9485;49.386;8.674;2023-03-31T18:09:36;1.63;;;0.83;;
18711;SDS011;9485;49.386;8.674;2023-03-31T18:14:58;3.13;;;1.20;;
18711;SDS011;9485;49.386;8.674;2023-03-31T18:20:21;2.70;;;1.10;;
18711;SDS011;9485;49.386;8.674;2023-03-31T18:25:42;1.83;;;1.10;;
18711;SDS011;9485;49.386;8.674;2023-03-31T18:31:06;1.93;;;1.00;;
18711;SDS011;9485;49.386;8.674;2023-03-31T18:36:28;1.93;;;1.00;;
18711;SDS011;9485;49.386;8.674;2023-03-31T18:41:49;0.87;;;0.63;;
18711;SDS011;9485;49.386;8.674;2023-03-31T18:47:12;1.70;;;0.90;;
18711;SDS011;9485;49.386;8.674;2023-03-31T18:52:34;1.47;;;0.97;;
18711;SDS011;9485;49.386;8.674;2023-03-31T18:57:55;1.87;;;1.23;;
18711;SDS011;9485;49.386;8.674;2023-03-31T19:03:17;2.90;;;1.10;;
18711;SDS011;9485;49.386;8.674;2023-03-31T19:08:38;1.63;;;1.00;;
18711;SDS011;9485;49.386;8.674;2023-03-31T19:13:59;2.33;;;1.50;;
18711;SDS011;9485;49.386;8.674;2023-03-31T19:19:22;2.30;;;0.87;;
18711;SDS011;9485;49.386;8.674;2023-03-31T19:24:43;1.23;;;0.87;;
18711;SDS011;9485;49.386;8.674;2023-03-31T19:30:04;1.03;;;0.83;;
18711;SDS011;9485;49.386;8.674;2023-03-31T19:35:33;2.77;;;1.10;;
18711;SDS011;9485;49.386;8.674;2023-03-31T19:40:59;1.50;;;0.87;;
18711;SDS011;9485;49.386;8.674;2023-03-31T19:46:21;1.90;;;1.00;;
18711;SDS011;9485;49.386;8.674;2023-03-31T19:51:44;1.47;;;1.10;;
18711;SDS011;9485;49.386;8.674;2023-03-31T19:57:05;2.70;;;1.10;;
18711;SDS011;9485;49.386;8.674;2023-03-31T20:02:27;3.00;;;1.17;;
18711;SDS011;9485;49.386;8.674;2023-03-31T20:07:49;1.37;;;0.77;;
18711;SDS011;9485;49.386;8.674;2023-03-31T20:13:10;1.53;;;1.03;;
18711;SDS011;9485;49.386;8.674;2023-03-31T20:18:30;2.63;;;0.87;;
18711;SDS011;9485;49.386;8.674;2023-03-31T20:23:54;1.47;;;0.90;;
18711;SDS011;9485;49.386;8.674;2023-03-31T20:29:15;1.70;;;0.60;;
18711;SDS011;9485;49.386;8.674;2023-03-31T20:34:36;0.80;;;0.80;;
18711;SDS011;9485;49.386;8.674;2023-03-31T20:39:58;1.47;;;0.70;;
18711;SDS011;9485;49.386;8.674;2023-03-31T20:45:19;2.20;;;0.80;;
18711;SDS011;9485;49.386;8.674;2023-03-31T20:50:39;3.40;;;1.30;;
18711;SDS011;9485;49.386;8.674;2023-03-31T20:56:01;1.83;;;1.00;;
18711;SDS011;9485;49.386;8.674;2023-03-31T21:01:23;1.50;;;1.20;;
18711;SDS011;9485;49.386;8.674;2023-03-31T21:06:46;2.10;;;1.40;;
18711;SDS011;9485;49.386;8.674;2023-03-31T21:12:08;3.40;;;1.30;;
18711;SDS011;9485;49.386;8.674;2023-03-31T21:17:28;2.53;;;1.43;;
18711;SDS011;9485;49.386;8.674;2023-03-31T21:22:49;2.57;;;1.13;;
18711;SDS011;9485;49.386;8.674;2023-03-31T21:28:11;4.23;;;1.40;;
18711;SDS011;9485;49.386;8.674;2023-03-31T21:33:32;4.13;;;1.57;;
18711;SDS011;9485;49.386;8.674;2023-03-31T21:38:56;2.30;;;1.00;;
18711;SDS011;9485;49.386;8.674;2023-03-31T21:44:18;3.90;;;1.00;;
18711;SDS011;9485;49.386;8.674;2023-03-31T21:49:38;4.63;;;1.27;;
18711;SDS011;9485;49.386;8.674;2023-03-31T21:54:59;2.20;;;0.90;;
18711;SDS011;9485;49.386;8.674;2023-03-31T22:00:21;1.73;;;0.97;;
18711;SDS011;9485;49.386;8.674;2023-03-31T22:05:42;5.53;;;1.10;;
18711;SDS011;9485;49.386;8.674;2023-03-31T22:11:03;1.73;;;0.80;;
18711;SDS011;9485;49.386;8.674;2023-03-31T22:16:26;2.43;;;0.90;;
18711;SDS011;9485;49.386;8.674;2023-03-31T22:21:47;2.17;;;0.90;;
18711;SDS011;9485;49.386;8.674;2023-03-31T22:27:08;2.53;;;1.10;;
18711;SDS011;9485;49.386;8.674;2023-03-31T22:32:31;1.80;;;0.83;;
18711;SDS011;9485;49.386;8.674;2023-03-31T22:37:52;2.67;;;0.83;;
18711;SDS011;9485;49.386;8.674;2023-03-31T22:43:13;1.60;;;0.93;;
18711;SDS011;9485;49.386;8.674;2023-03-31T22:48:35;1.23;;;0.60;;
18711;SDS011;9485;49.386;8.674;2023-03-31T22:53:57;1.40;;;0.70;;
18711;SDS011;9485;49.386;8.674;2023-03-31T22:59:18;1.83;;;0.73;;
18711;SDS011;9485;49.386;8.674;2023-03-31T23:04:40;2.70;;;0.80;;
18711;SDS011;9485;49.386;8.674;2023-03-31T23:10:01;2.33;;;0.93;;
18711;SDS011;9485;49.386;8.674;2023-03-31T23:15:22;2.77;;;0.73;;
18711;SDS011;9485;49.386;8.674;2023-03-31T23:20:44;0.67;;;0.67;;
18711;SDS011;9485;49.386;8.674;2023-03-31T23:26:05;2.87;;;0.90;;
18711;SDS011;9485;49.386;8.674;2023-03-31T23:31:26;2.57;;;0.80;;
18711;SDS011;9485;49.386;8.674;2023-03-31T23:36:50;1.13;;;0.73;;
18711;SDS011;9485;49.386;8.674;2023-03-31T23:42:36;0.97;;;0.77;;
18711;SDS011;9485;49.386;8.674;2023-03-31T23:48:23;1.97;;;0.90;;
18711;SDS011;9485;49.386;8.674;2023-03-31T23:53:44;1.83;;;0.80;;
18711;SDS011;9485;49.386;8.674;2023-03-31T23:59:05;0.70;;;0.70;;
